Richard Lloyd Jones Jr Airport
KRVS : now visible

Airfield :











YOU CAN JOIN US ON...

 
LOGIN :

Register | Disclaimer

   EN    FR    IT 

 









Legend :    VFR   Marginal VFR   IFR   Intensive IFR   Very Intensive IFR
Visi :
Ceiling :
>= 8 km
>= 3000ft
5 to 8 km
1000 to 3000 ft
1500m to 5 km
500 to 1000 ft
800 to 1500m
200 to 500 ft
< 800m
< 200 ft
Symbols :   Thunderstorms  Fog  Heavy snow  Heavy precipitations  Wind > 20 kt







- Airport Elevation : 638 ft


KRVS - Richard Lloyd Jones Jr

CURRENT METAR :
  • 211353Z 20004KT 10SM CLR 29/23 A3001 RMK AO2 SLP161 T02890228 $

EXPIRED METARs :
  • 211253Z 20004KT 10SM CLR 27/22 A3001 RMK AO2 SLP162 T02670222 $
  • 211153Z 00000KT 10SM CLR 24/22 A3000 RMK AO2 SLP160 T02440222 10289 20244 53016

TAF KRVS
Valid from the 21 at 12:00 until the 22 at 12:00 UTC


211120Z 2112/2212 18008KT P6SM SCT250
FM212000 17009KT P6SM VCTS SCT060CB
FM220200 16008KT P6SM SCT060 BKN180
PROB30 2206/2212 -TSRA BKN050CB
No reported NOTAMs for that airfield.



MET'MAP, your aeronautical weather chart ! - Copyright ORBIFLY December 2007 - Disclaimer

ORBIFLY MET'MAP TEAM :

Programming & Development : Alexandra Zaïnal
Concept & Development : Baudouin d'Aumeries
Co-Development & Prog : Marc-Olivier Méhu
Technical & hardware support : Manuel Goepfert

Contact : metmap@orbifly.com




SOURCES & CREDITS :

   NOAA       Earth
Advisory